sensor_id;sensor_type;location;lat;lon;timestamp;P1;durP1;ratioP1;P2;durP2;ratioP2
83562;SDS011;73535;52.500;13.482;2023-12-28T00:01:04;11.30;;;4.53;;
83562;SDS011;73535;52.500;13.482;2023-12-28T00:03:29;10.52;;;4.05;;
83562;SDS011;73535;52.500;13.482;2023-12-28T00:05:54;7.55;;;4.30;;
83562;SDS011;73535;52.500;13.482;2023-12-28T00:08:19;6.60;;;4.05;;
83562;SDS011;73535;52.500;13.482;2023-12-28T00:10:45;5.97;;;3.75;;
83562;SDS011;73535;52.500;13.482;2023-12-28T00:13:10;5.75;;;3.53;;
83562;SDS011;73535;52.500;13.482;2023-12-28T00:15:35;6.18;;;3.97;;
83562;SDS011;73535;52.500;13.482;2023-12-28T00:18:00;5.00;;;3.38;;
83562;SDS011;73535;52.500;13.482;2023-12-28T00:20:26;8.00;;;3.83;;
83562;SDS011;73535;52.500;13.482;2023-12-28T00:22:51;9.90;;;4.85;;
83562;SDS011;73535;52.500;13.482;2023-12-28T00:25:16;7.15;;;4.07;;
83562;SDS011;73535;52.500;13.482;2023-12-28T00:27:41;5.93;;;3.25;;
83562;SDS011;73535;52.500;13.482;2023-12-28T00:30:07;6.88;;;3.42;;
83562;SDS011;73535;52.500;13.482;2023-12-28T00:32:32;8.80;;;3.80;;
83562;SDS011;73535;52.500;13.482;2023-12-28T00:34:57;11.25;;;3.85;;
83562;SDS011;73535;52.500;13.482;2023-12-28T00:37:23;7.15;;;3.45;;
83562;SDS011;73535;52.500;13.482;2023-12-28T00:39:48;7.82;;;3.55;;
83562;SDS011;73535;52.500;13.482;2023-12-28T00:44:40;7.33;;;3.40;;
83562;SDS011;73535;52.500;13.482;2023-12-28T00:47:06;6.88;;;3.75;;
83562;SDS011;73535;52.500;13.482;2023-12-28T00:49:31;5.03;;;2.67;;
83562;SDS011;73535;52.500;13.482;2023-12-28T00:51:57;4.88;;;3.42;;
83562;SDS011;73535;52.500;13.482;2023-12-28T00:54:22;8.10;;;3.78;;
83562;SDS011;73535;52.500;13.482;2023-12-28T00:56:47;4.50;;;3.38;;
83562;SDS011;73535;52.500;13.482;2023-12-28T00:59:12;5.00;;;3.15;;
83562;SDS011;73535;52.500;13.482;2023-12-28T01:01:37;6.55;;;3.28;;
83562;SDS011;73535;52.500;13.482;2023-12-28T01:04:03;5.65;;;3.05;;
83562;SDS011;73535;52.500;13.482;2023-12-28T01:06:28;6.78;;;3.38;;
83562;SDS011;73535;52.500;13.482;2023-12-28T01:08:54;6.18;;;3.30;;
83562;SDS011;73535;52.500;13.482;2023-12-28T01:11:19;6.07;;;3.25;;
83562;SDS011;73535;52.500;13.482;2023-12-28T01:13:45;5.78;;;3.15;;
83562;SDS011;73535;52.500;13.482;2023-12-28T01:16:12;6.28;;;3.30;;
83562;SDS011;73535;52.500;13.482;2023-12-28T01:18:37;5.78;;;3.38;;
83562;SDS011;73535;52.500;13.482;2023-12-28T01:21:02;5.05;;;3.40;;
83562;SDS011;73535;52.500;13.482;2023-12-28T01:23:28;6.68;;;3.30;;
83562;SDS011;73535;52.500;13.482;2023-12-28T01:25:54;4.10;;;3.20;;
83562;SDS011;73535;52.500;13.482;2023-12-28T01:28:21;5.45;;;3.42;;
83562;SDS011;73535;52.500;13.482;2023-12-28T01:30:46;6.95;;;3.55;;
83562;SDS011;73535;52.500;13.482;2023-12-28T01:33:11;5.45;;;3.03;;
83562;SDS011;73535;52.500;13.482;2023-12-28T01:35:36;6.80;;;3.30;;
83562;SDS011;73535;52.500;13.482;2023-12-28T01:38:02;5.60;;;3.90;;
83562;SDS011;73535;52.500;13.482;2023-12-28T01:40:27;4.80;;;3.17;;
83562;SDS011;73535;52.500;13.482;2023-12-28T01:42:52;4.60;;;3.20;;
83562;SDS011;73535;52.500;13.482;2023-12-28T01:45:17;6.25;;;3.13;;
83562;SDS011;73535;52.500;13.482;2023-12-28T01:47:43;7.00;;;3.25;;
83562;SDS011;73535;52.500;13.482;2023-12-28T01:50:08;3.65;;;2.70;;
83562;SDS011;73535;52.500;13.482;2023-12-28T01:52:34;6.43;;;3.47;;
83562;SDS011;73535;52.500;13.482;2023-12-28T01:54:59;4.70;;;3.50;;
83562;SDS011;73535;52.500;13.482;2023-12-28T01:57:25;5.80;;;3.97;;
83562;SDS011;73535;52.500;13.482;2023-12-28T01:59:51;8.40;;;4.05;;
83562;SDS011;73535;52.500;13.482;2023-12-28T02:04:43;12.50;;;7.57;;
83562;SDS011;73535;52.500;13.482;2023-12-28T02:07:10;10.57;;;8.02;;
83562;SDS011;73535;52.500;13.482;2023-12-28T02:09:35;8.05;;;5.72;;
83562;SDS011;73535;52.500;13.482;2023-12-28T02:12:01;14.68;;;9.05;;
83562;SDS011;73535;52.500;13.482;2023-12-28T02:14:26;23.70;;;13.25;;
83562;SDS011;73535;52.500;13.482;2023-12-28T02:16:57;21.00;;;12.55;;
83562;SDS011;73535;52.500;13.482;2023-12-28T02:19:32;12.05;;;7.57;;
83562;SDS011;73535;52.500;13.482;2023-12-28T02:22:07;3.88;;;2.53;;
83562;SDS011;73535;52.500;13.482;2023-12-28T02:27:21;5.30;;;2.38;;
83562;SDS011;73535;52.500;13.482;2023-12-28T02:29:46;4.60;;;2.15;;
83562;SDS011;73535;52.500;13.482;2023-12-28T02:32:11;2.25;;;1.92;;
83562;SDS011;73535;52.500;13.482;2023-12-28T02:34:37;4.05;;;2.28;;
83562;SDS011;73535;52.500;13.482;2023-12-28T02:37:07;5.78;;;2.75;;
83562;SDS011;73535;52.500;13.482;2023-12-28T02:42:00;3.53;;;2.00;;
83562;SDS011;73535;52.500;13.482;2023-12-28T02:44:25;2.50;;;1.92;;
83562;SDS011;73535;52.500;13.482;2023-12-28T02:46:50;3.30;;;1.60;;
83562;SDS011;73535;52.500;13.482;2023-12-28T02:49:15;2.97;;;1.83;;
83562;SDS011;73535;52.500;13.482;2023-12-28T02:51:41;5.15;;;2.00;;
83562;SDS011;73535;52.500;13.482;2023-12-28T02:54:07;2.65;;;1.70;;
83562;SDS011;73535;52.500;13.482;2023-12-28T02:56:33;3.13;;;1.55;;
83562;SDS011;73535;52.500;13.482;2023-12-28T02:58:58;2.47;;;1.20;;
83562;SDS011;73535;52.500;13.482;2023-12-28T03:01:23;2.60;;;1.85;;
83562;SDS011;73535;52.500;13.482;2023-12-28T03:03:48;2.47;;;1.60;;
83562;SDS011;73535;52.500;13.482;2023-12-28T03:06:14;2.00;;;1.40;;
83562;SDS011;73535;52.500;13.482;2023-12-28T03:08:39;2.58;;;1.50;;
83562;SDS011;73535;52.500;13.482;2023-12-28T03:11:04;5.22;;;1.67;;
83562;SDS011;73535;52.500;13.482;2023-12-28T03:13:30;1.80;;;1.27;;
83562;SDS011;73535;52.500;13.482;2023-12-28T03:15:56;2.05;;;1.20;;
83562;SDS011;73535;52.500;13.482;2023-12-28T03:18:22;2.22;;;1.50;;
83562;SDS011;73535;52.500;13.482;2023-12-28T03:20:47;2.80;;;1.27;;
83562;SDS011;73535;52.500;13.482;2023-12-28T03:23:12;2.85;;;1.55;;
83562;SDS011;73535;52.500;13.482;2023-12-28T03:25:38;2.55;;;1.30;;
83562;SDS011;73535;52.500;13.482;2023-12-28T03:28:03;2.22;;;1.25;;
83562;SDS011;73535;52.500;13.482;2023-12-28T03:30:31;1.52;;;1.17;;
83562;SDS011;73535;52.500;13.482;2023-12-28T03:32:56;1.95;;;1.17;;
83562;SDS011;73535;52.500;13.482;2023-12-28T03:35:22;1.92;;;1.25;;
83562;SDS011;73535;52.500;13.482;2023-12-28T03:37:47;2.53;;;1.27;;
83562;SDS011;73535;52.500;13.482;2023-12-28T03:40:12;2.63;;;1.35;;
83562;SDS011;73535;52.500;13.482;2023-12-28T03:42:39;3.63;;;1.50;;
83562;SDS011;73535;52.500;13.482;2023-12-28T03:45:04;2.15;;;1.02;;
83562;SDS011;73535;52.500;13.482;2023-12-28T03:47:30;1.38;;;1.25;;
83562;SDS011;73535;52.500;13.482;2023-12-28T03:49:55;1.50;;;1.13;;
83562;SDS011;73535;52.500;13.482;2023-12-28T03:52:22;2.80;;;1.48;;
83562;SDS011;73535;52.500;13.482;2023-12-28T03:54:48;1.60;;;1.20;;
83562;SDS011;73535;52.500;13.482;2023-12-28T03:57:13;3.45;;;1.85;;
83562;SDS011;73535;52.500;13.482;2023-12-28T03:59:39;1.80;;;1.40;;
83562;SDS011;73535;52.500;13.482;2023-12-28T04:02:04;2.47;;;1.10;;
83562;SDS011;73535;52.500;13.482;2023-12-28T04:04:29;2.00;;;1.58;;
83562;SDS011;73535;52.500;13.482;2023-12-28T04:06:54;2.05;;;1.60;;
83562;SDS011;73535;52.500;13.482;2023-12-28T04:09:20;2.35;;;1.30;;
83562;SDS011;73535;52.500;13.482;2023-12-28T04:11:46;1.85;;;1.50;;
83562;SDS011;73535;52.500;13.482;2023-12-28T04:14:11;2.25;;;1.23;;
83562;SDS011;73535;52.500;13.482;2023-12-28T04:16:36;2.40;;;1.20;;
83562;SDS011;73535;52.500;13.482;2023-12-28T04:19:01;3.42;;;1.17;;
83562;SDS011;73535;52.500;13.482;2023-12-28T04:21:27;1.63;;;1.20;;
83562;SDS011;73535;52.500;13.482;2023-12-28T04:23:52;2.00;;;1.30;;
83562;SDS011;73535;52.500;13.482;2023-12-28T04:26:18;4.03;;;1.30;;
83562;SDS011;73535;52.500;13.482;2023-12-28T04:28:44;2.80;;;1.15;;
83562;SDS011;73535;52.500;13.482;2023-12-28T04:31:09;1.90;;;1.20;;
83562;SDS011;73535;52.500;13.482;2023-12-28T04:33:35;4.63;;;1.40;;
83562;SDS011;73535;52.500;13.482;2023-12-28T04:36:00;2.65;;;1.48;;
83562;SDS011;73535;52.500;13.482;2023-12-28T04:38:30;2.33;;;1.20;;
83562;SDS011;73535;52.500;13.482;2023-12-28T04:40:56;2.22;;;1.10;;
83562;SDS011;73535;52.500;13.482;2023-12-28T04:43:21;2.40;;;1.42;;
83562;SDS011;73535;52.500;13.482;2023-12-28T04:45:48;1.88;;;1.00;;
83562;SDS011;73535;52.500;13.482;2023-12-28T04:48:14;1.90;;;1.20;;
83562;SDS011;73535;52.500;13.482;2023-12-28T04:50:39;2.13;;;1.13;;
83562;SDS011;73535;52.500;13.482;2023-12-28T04:53:04;3.70;;;1.40;;
83562;SDS011;73535;52.500;13.482;2023-12-28T04:55:29;2.35;;;1.52;;
83562;SDS011;73535;52.500;13.482;2023-12-28T04:57:54;4.05;;;1.60;;
83562;SDS011;73535;52.500;13.482;2023-12-28T05:00:20;1.65;;;1.27;;
83562;SDS011;73535;52.500;13.482;2023-12-28T05:02:45;1.40;;;1.00;;
83562;SDS011;73535;52.500;13.482;2023-12-28T05:05:11;2.60;;;1.27;;
83562;SDS011;73535;52.500;13.482;2023-12-28T05:07:37;1.70;;;1.20;;
83562;SDS011;73535;52.500;13.482;2023-12-28T05:10:02;2.53;;;1.20;;
83562;SDS011;73535;52.500;13.482;2023-12-28T05:12:28;2.13;;;1.38;;
83562;SDS011;73535;52.500;13.482;2023-12-28T05:14:53;1.80;;;1.17;;
83562;SDS011;73535;52.500;13.482;2023-12-28T05:17:18;2.10;;;1.10;;
83562;SDS011;73535;52.500;13.482;2023-12-28T05:19:43;2.13;;;1.20;;
83562;SDS011;73535;52.500;13.482;2023-12-28T05:22:09;2.05;;;1.27;;
83562;SDS011;73535;52.500;13.482;2023-12-28T05:24:36;3.33;;;1.30;;
83562;SDS011;73535;52.500;13.482;2023-12-28T05:27:01;1.90;;;1.23;;
83562;SDS011;73535;52.500;13.482;2023-12-28T05:29:26;1.63;;;1.08;;
83562;SDS011;73535;52.500;13.482;2023-12-28T05:31:51;1.60;;;1.15;;
83562;SDS011;73535;52.500;13.482;2023-12-28T05:34:17;2.10;;;1.30;;
83562;SDS011;73535;52.500;13.482;2023-12-28T05:36:42;1.58;;;1.20;;
83562;SDS011;73535;52.500;13.482;2023-12-28T05:39:10;3.67;;;1.10;;
83562;SDS011;73535;52.500;13.482;2023-12-28T05:41:36;2.47;;;1.52;;
83562;SDS011;73535;52.500;13.482;2023-12-28T05:44:02;1.65;;;1.20;;
83562;SDS011;73535;52.500;13.482;2023-12-28T05:46:27;2.08;;;1.20;;
83562;SDS011;73535;52.500;13.482;2023-12-28T05:48:52;3.47;;;1.42;;
83562;SDS011;73535;52.500;13.482;2023-12-28T05:51:17;2.47;;;1.52;;
83562;SDS011;73535;52.500;13.482;2023-12-28T05:53:43;2.60;;;1.58;;
83562;SDS011;73535;52.500;13.482;2023-12-28T05:56:08;3.97;;;1.80;;
83562;SDS011;73535;52.500;13.482;2023-12-28T05:58:34;4.70;;;2.55;;
83562;SDS011;73535;52.500;13.482;2023-12-28T06:00:59;3.97;;;2.05;;
83562;SDS011;73535;52.500;13.482;2023-12-28T06:03:24;5.22;;;1.90;;
83562;SDS011;73535;52.500;13.482;2023-12-28T06:05:53;2.78;;;1.15;;
83562;SDS011;73535;52.500;13.482;2023-12-28T06:08:18;1.90;;;1.25;;
83562;SDS011;73535;52.500;13.482;2023-12-28T06:10:43;2.03;;;1.50;;
83562;SDS011;73535;52.500;13.482;2023-12-28T06:13:08;2.63;;;1.20;;
83562;SDS011;73535;52.500;13.482;2023-12-28T06:15:33;3.22;;;1.13;;
83562;SDS011;73535;52.500;13.482;2023-12-28T06:17:59;2.65;;;1.48;;
83562;SDS011;73535;52.500;13.482;2023-12-28T06:20:24;2.83;;;1.33;;
83562;SDS011;73535;52.500;13.482;2023-12-28T06:22:49;2.10;;;1.20;;
83562;SDS011;73535;52.500;13.482;2023-12-28T06:25:15;1.63;;;1.15;;
83562;SDS011;73535;52.500;13.482;2023-12-28T06:27:40;2.22;;;1.35;;
83562;SDS011;73535;52.500;13.482;2023-12-28T06:30:06;1.60;;;1.30;;
83562;SDS011;73535;52.500;13.482;2023-12-28T06:32:31;3.10;;;1.05;;
83562;SDS011;73535;52.500;13.482;2023-12-28T06:34:57;1.90;;;1.25;;
83562;SDS011;73535;52.500;13.482;2023-12-28T06:37:22;1.75;;;1.10;;
83562;SDS011;73535;52.500;13.482;2023-12-28T06:39:47;2.83;;;1.80;;
83562;SDS011;73535;52.500;13.482;2023-12-28T06:42:12;1.95;;;1.20;;
83562;SDS011;73535;52.500;13.482;2023-12-28T06:44:37;1.55;;;1.25;;
83562;SDS011;73535;52.500;13.482;2023-12-28T06:47:03;3.67;;;1.50;;
83562;SDS011;73535;52.500;13.482;2023-12-28T06:49:28;1.75;;;1.10;;
83562;SDS011;73535;52.500;13.482;2023-12-28T06:51:53;2.42;;;1.63;;
83562;SDS011;73535;52.500;13.482;2023-12-28T06:54:18;3.47;;;1.50;;
83562;SDS011;73535;52.500;13.482;2023-12-28T06:56:44;2.97;;;1.30;;
83562;SDS011;73535;52.500;13.482;2023-12-28T06:59:09;2.53;;;1.40;;
83562;SDS011;73535;52.500;13.482;2023-12-28T07:01:38;3.10;;;1.30;;
83562;SDS011;73535;52.500;13.482;2023-12-28T07:04:03;2.63;;;1.40;;
83562;SDS011;73535;52.500;13.482;2023-12-28T07:06:29;3.30;;;1.63;;
83562;SDS011;73535;52.500;13.482;2023-12-28T07:08:54;1.95;;;1.15;;
83562;SDS011;73535;52.500;13.482;2023-12-28T07:11:19;2.15;;;1.25;;
83562;SDS011;73535;52.500;13.482;2023-12-28T07:13:44;2.78;;;1.27;;
83562;SDS011;73535;52.500;13.482;2023-12-28T07:16:10;2.22;;;1.42;;
83562;SDS011;73535;52.500;13.482;2023-12-28T07:18:35;1.80;;;1.40;;
83562;SDS011;73535;52.500;13.482;2023-12-28T07:21:00;2.50;;;1.20;;
83562;SDS011;73535;52.500;13.482;2023-12-28T07:23:26;2.97;;;1.40;;
83562;SDS011;73535;52.500;13.482;2023-12-28T07:25:51;3.13;;;1.70;;
83562;SDS011;73535;52.500;13.482;2023-12-28T07:28:16;2.80;;;1.35;;
83562;SDS011;73535;52.500;13.482;2023-12-28T07:30:41;2.92;;;1.40;;
83562;SDS011;73535;52.500;13.482;2023-12-28T07:33:07;3.25;;;1.35;;
83562;SDS011;73535;52.500;13.482;2023-12-28T07:35:32;1.90;;;1.33;;
83562;SDS011;73535;52.500;13.482;2023-12-28T07:37:57;1.83;;;1.30;;
83562;SDS011;73535;52.500;13.482;2023-12-28T07:40:22;1.75;;;1.48;;
83562;SDS011;73535;52.500;13.482;2023-12-28T07:42:48;2.28;;;1.40;;
83562;SDS011;73535;52.500;13.482;2023-12-28T07:45:13;2.20;;;1.50;;
83562;SDS011;73535;52.500;13.482;2023-12-28T07:47:38;2.20;;;1.30;;
83562;SDS011;73535;52.500;13.482;2023-12-28T07:50:03;3.28;;;1.90;;
83562;SDS011;73535;52.500;13.482;2023-12-28T07:52:29;3.10;;;1.15;;
83562;SDS011;73535;52.500;13.482;2023-12-28T07:54:54;2.65;;;1.52;;
83562;SDS011;73535;52.500;13.482;2023-12-28T07:57:20;2.53;;;1.25;;
83562;SDS011;73535;52.500;13.482;2023-12-28T07:59:45;1.77;;;1.20;;
83562;SDS011;73535;52.500;13.482;2023-12-28T08:02:11;5.72;;;1.80;;
83562;SDS011;73535;52.500;13.482;2023-12-28T08:04:36;3.65;;;1.60;;
83562;SDS011;73535;52.500;13.482;2023-12-28T08:07:01;2.75;;;1.52;;
83562;SDS011;73535;52.500;13.482;2023-12-28T08:09:26;1.90;;;1.27;;
83562;SDS011;73535;52.500;13.482;2023-12-28T08:11:52;2.03;;;1.45;;
83562;SDS011;73535;52.500;13.482;2023-12-28T08:14:17;2.80;;;1.30;;
83562;SDS011;73535;52.500;13.482;2023-12-28T08:16:42;2.17;;;1.30;;
83562;SDS011;73535;52.500;13.482;2023-12-28T08:19:07;3.75;;;1.50;;
83562;SDS011;73535;52.500;13.482;2023-12-28T08:21:33;1.92;;;1.50;;
83562;SDS011;73535;52.500;13.482;2023-12-28T08:23:58;3.22;;;1.55;;
83562;SDS011;73535;52.500;13.482;2023-12-28T08:26:23;2.45;;;1.50;;
83562;SDS011;73535;52.500;13.482;2023-12-28T08:28:48;3.38;;;1.50;;
83562;SDS011;73535;52.500;13.482;2023-12-28T08:31:14;2.67;;;1.52;;
83562;SDS011;73535;52.500;13.482;2023-12-28T08:33:39;4.22;;;1.50;;
83562;SDS011;73535;52.500;13.482;2023-12-28T08:36:05;3.80;;;1.63;;
83562;SDS011;73535;52.500;13.482;2023-12-28T08:38:31;3.58;;;1.60;;
83562;SDS011;73535;52.500;13.482;2023-12-28T08:40:57;3.03;;;1.48;;
83562;SDS011;73535;52.500;13.482;2023-12-28T08:43:22;2.22;;;1.50;;
83562;SDS011;73535;52.500;13.482;2023-12-28T08:45:47;3.92;;;1.60;;
83562;SDS011;73535;52.500;13.482;2023-12-28T08:48:12;3.65;;;1.60;;
83562;SDS011;73535;52.500;13.482;2023-12-28T08:50:38;2.80;;;1.45;;
83562;SDS011;73535;52.500;13.482;2023-12-28T08:53:03;2.92;;;1.40;;
83562;SDS011;73535;52.500;13.482;2023-12-28T08:55:28;2.58;;;1.48;;
83562;SDS011;73535;52.500;13.482;2023-12-28T08:57:53;2.67;;;1.70;;
83562;SDS011;73535;52.500;13.482;2023-12-28T09:00:18;3.20;;;1.50;;
83562;SDS011;73535;52.500;13.482;2023-12-28T09:02:44;3.30;;;1.70;;
83562;SDS011;73535;52.500;13.482;2023-12-28T09:05:09;5.82;;;1.92;;
83562;SDS011;73535;52.500;13.482;2023-12-28T09:07:35;3.13;;;1.63;;
83562;SDS011;73535;52.500;13.482;2023-12-28T09:10:03;2.88;;;1.50;;
83562;SDS011;73535;52.500;13.482;2023-12-28T09:12:29;2.45;;;1.52;;
83562;SDS011;73535;52.500;13.482;2023-12-28T09:14:54;3.75;;;1.85;;
83562;SDS011;73535;52.500;13.482;2023-12-28T09:17:23;4.57;;;1.80;;
83562;SDS011;73535;52.500;13.482;2023-12-28T09:19:49;2.50;;;1.63;;
83562;SDS011;73535;52.500;13.482;2023-12-28T09:22:14;2.95;;;1.52;;
83562;SDS011;73535;52.500;13.482;2023-12-28T09:24:39;3.22;;;1.90;;
83562;SDS011;73535;52.500;13.482;2023-12-28T09:27:05;3.47;;;1.95;;
83562;SDS011;73535;52.500;13.482;2023-12-28T09:29:30;1.98;;;1.63;;
83562;SDS011;73535;52.500;13.482;2023-12-28T09:31:56;3.15;;;1.80;;
83562;SDS011;73535;52.500;13.482;2023-12-28T09:34:21;3.63;;;1.98;;
83562;SDS011;73535;52.500;13.482;2023-12-28T09:36:46;3.65;;;1.75;;
83562;SDS011;73535;52.500;13.482;2023-12-28T09:39:11;4.25;;;1.80;;
83562;SDS011;73535;52.500;13.482;2023-12-28T09:41:38;6.75;;;1.98;;
83562;SDS011;73535;52.500;13.482;2023-12-28T09:44:09;2.97;;;2.10;;
83562;SDS011;73535;52.500;13.482;2023-12-28T09:46:42;3.30;;;1.92;;
83562;SDS011;73535;52.500;13.482;2023-12-28T09:49:07;3.38;;;1.60;;
83562;SDS011;73535;52.500;13.482;2023-12-28T09:51:33;2.50;;;1.80;;
83562;SDS011;73535;52.500;13.482;2023-12-28T09:53:58;2.45;;;2.00;;
83562;SDS011;73535;52.500;13.482;2023-12-28T09:56:24;4.05;;;1.67;;
83562;SDS011;73535;52.500;13.482;2023-12-28T09:58:50;2.70;;;1.80;;
83562;SDS011;73535;52.500;13.482;2023-12-28T10:01:16;3.63;;;2.00;;
83562;SDS011;73535;52.500;13.482;2023-12-28T10:03:42;3.20;;;1.90;;
83562;SDS011;73535;52.500;13.482;2023-12-28T10:06:07;2.80;;;2.10;;
83562;SDS011;73535;52.500;13.482;2023-12-28T10:08:32;4.25;;;2.10;;
83562;SDS011;73535;52.500;13.482;2023-12-28T10:10:58;3.63;;;2.13;;
83562;SDS011;73535;52.500;13.482;2023-12-28T10:13:25;4.43;;;1.95;;
83562;SDS011;73535;52.500;13.482;2023-12-28T10:15:50;4.05;;;2.05;;
83562;SDS011;73535;52.500;13.482;2023-12-28T10:18:18;3.97;;;2.58;;
83562;SDS011;73535;52.500;13.482;2023-12-28T10:20:50;3.90;;;2.25;;
83562;SDS011;73535;52.500;13.482;2023-12-28T10:23:16;3.28;;;2.30;;
83562;SDS011;73535;52.500;13.482;2023-12-28T10:25:42;2.38;;;1.73;;
83562;SDS011;73535;52.500;13.482;2023-12-28T10:28:07;3.55;;;2.05;;
83562;SDS011;73535;52.500;13.482;2023-12-28T10:30:33;3.97;;;1.88;;
83562;SDS011;73535;52.500;13.482;2023-12-28T10:32:58;2.70;;;2.05;;
83562;SDS011;73535;52.500;13.482;2023-12-28T10:35:23;3.42;;;1.80;;
83562;SDS011;73535;52.500;13.482;2023-12-28T10:37:49;2.50;;;1.90;;
83562;SDS011;73535;52.500;13.482;2023-12-28T10:40:18;2.28;;;1.88;;
83562;SDS011;73535;52.500;13.482;2023-12-28T10:45:19;2.83;;;2.00;;
83562;SDS011;73535;52.500;13.482;2023-12-28T10:48:24;2.53;;;1.80;;
83562;SDS011;73535;52.500;13.482;2023-12-28T10:50:51;2.85;;;2.05;;
83562;SDS011;73535;52.500;13.482;2023-12-28T10:56:06;3.08;;;1.90;;
83562;SDS011;73535;52.500;13.482;2023-12-28T10:58:56;5.60;;;2.10;;
83562;SDS011;73535;52.500;13.482;2023-12-28T11:01:31;2.67;;;1.77;;
83562;SDS011;73535;52.500;13.482;2023-12-28T11:04:00;2.53;;;2.00;;
83562;SDS011;73535;52.500;13.482;2023-12-28T11:06:29;3.63;;;2.20;;
83562;SDS011;73535;52.500;13.482;2023-12-28T11:11:22;4.28;;;1.88;;
83562;SDS011;73535;52.500;13.482;2023-12-28T11:13:48;4.35;;;1.80;;
83562;SDS011;73535;52.500;13.482;2023-12-28T11:16:16;3.05;;;1.75;;
83562;SDS011;73535;52.500;13.482;2023-12-28T11:18:42;2.95;;;1.80;;
83562;SDS011;73535;52.500;13.482;2023-12-28T11:21:08;4.38;;;2.45;;
83562;SDS011;73535;52.500;13.482;2023-12-28T11:23:33;3.90;;;2.25;;
83562;SDS011;73535;52.500;13.482;2023-12-28T11:25:59;3.25;;;2.08;;
83562;SDS011;73535;52.500;13.482;2023-12-28T11:28:25;3.97;;;2.17;;
83562;SDS011;73535;52.500;13.482;2023-12-28T11:30:51;4.40;;;2.53;;
83562;SDS011;73535;52.500;13.482;2023-12-28T11:33:17;3.03;;;2.03;;
83562;SDS011;73535;52.500;13.482;2023-12-28T11:35:42;2.88;;;1.85;;
83562;SDS011;73535;52.500;13.482;2023-12-28T11:38:08;6.47;;;2.17;;
83562;SDS011;73535;52.500;13.482;2023-12-28T11:40:46;2.20;;;1.80;;
83562;SDS011;73535;52.500;13.482;2023-12-28T11:43:15;6.35;;;2.17;;
83562;SDS011;73535;52.500;13.482;2023-12-28T11:45:50;2.90;;;1.83;;
83562;SDS011;73535;52.500;13.482;2023-12-28T11:48:26;3.20;;;1.77;;
83562;SDS011;73535;52.500;13.482;2023-12-28T11:50:56;3.33;;;1.73;;
83562;SDS011;73535;52.500;13.482;2023-12-28T11:53:23;4.43;;;1.90;;
83562;SDS011;73535;52.500;13.482;2023-12-28T11:55:49;4.13;;;2.08;;
83562;SDS011;73535;52.500;13.482;2023-12-28T11:58:18;2.30;;;1.98;;
83562;SDS011;73535;52.500;13.482;2023-12-28T12:00:43;3.53;;;1.60;;
83562;SDS011;73535;52.500;13.482;2023-12-28T12:03:12;3.85;;;2.15;;
83562;SDS011;73535;52.500;13.482;2023-12-28T12:05:38;3.63;;;1.70;;
83562;SDS011;73535;52.500;13.482;2023-12-28T12:08:04;5.00;;;1.90;;
83562;SDS011;73535;52.500;13.482;2023-12-28T12:10:30;3.75;;;2.10;;
83562;SDS011;73535;52.500;13.482;2023-12-28T12:15:22;2.40;;;1.67;;
83562;SDS011;73535;52.500;13.482;2023-12-28T12:17:47;3.25;;;1.70;;
83562;SDS011;73535;52.500;13.482;2023-12-28T12:20:12;3.10;;;1.95;;
83562;SDS011;73535;52.500;13.482;2023-12-28T12:22:39;3.47;;;2.05;;
83562;SDS011;73535;52.500;13.482;2023-12-28T12:25:04;2.35;;;1.70;;
83562;SDS011;73535;52.500;13.482;2023-12-28T12:27:31;2.35;;;1.65;;
83562;SDS011;73535;52.500;13.482;2023-12-28T12:29:56;3.20;;;1.92;;
83562;SDS011;73535;52.500;13.482;2023-12-28T12:32:22;2.97;;;1.88;;
83562;SDS011;73535;52.500;13.482;2023-12-28T12:34:47;2.67;;;1.92;;
83562;SDS011;73535;52.500;13.482;2023-12-28T12:37:13;2.83;;;2.00;;
83562;SDS011;73535;52.500;13.482;2023-12-28T12:39:38;3.15;;;1.88;;
83562;SDS011;73535;52.500;13.482;2023-12-28T12:42:04;3.15;;;1.88;;
83562;SDS011;73535;52.500;13.482;2023-12-28T12:44:29;4.05;;;2.10;;
83562;SDS011;73535;52.500;13.482;2023-12-28T12:46:58;2.92;;;1.55;;
83562;SDS011;73535;52.500;13.482;2023-12-28T12:49:24;4.22;;;1.80;;
83562;SDS011;73535;52.500;13.482;2023-12-28T12:51:50;3.00;;;1.60;;
83562;SDS011;73535;52.500;13.482;2023-12-28T12:54:16;2.10;;;1.45;;
83562;SDS011;73535;52.500;13.482;2023-12-28T12:56:43;3.22;;;1.90;;
83562;SDS011;73535;52.500;13.482;2023-12-28T12:59:10;2.90;;;1.77;;
83562;SDS011;73535;52.500;13.482;2023-12-28T13:01:41;2.97;;;1.60;;
83562;SDS011;73535;52.500;13.482;2023-12-28T13:04:06;4.43;;;2.20;;
83562;SDS011;73535;52.500;13.482;2023-12-28T13:06:31;3.92;;;1.67;;
83562;SDS011;73535;52.500;13.482;2023-12-28T13:08:57;5.57;;;2.10;;
83562;SDS011;73535;52.500;13.482;2023-12-28T13:11:22;3.40;;;1.88;;
83562;SDS011;73535;52.500;13.482;2023-12-28T13:13:51;2.90;;;1.80;;
83562;SDS011;73535;52.500;13.482;2023-12-28T13:16:16;4.07;;;1.80;;
83562;SDS011;73535;52.500;13.482;2023-12-28T13:18:41;3.13;;;1.60;;
83562;SDS011;73535;52.500;13.482;2023-12-28T13:21:06;3.22;;;1.65;;
83562;SDS011;73535;52.500;13.482;2023-12-28T13:23:32;2.58;;;1.60;;
83562;SDS011;73535;52.500;13.482;2023-12-28T13:25:57;3.30;;;2.00;;
83562;SDS011;73535;52.500;13.482;2023-12-28T13:28:22;4.05;;;1.95;;
83562;SDS011;73535;52.500;13.482;2023-12-28T13:30:47;2.67;;;2.10;;
83562;SDS011;73535;52.500;13.482;2023-12-28T13:33:15;2.55;;;1.60;;
83562;SDS011;73535;52.500;13.482;2023-12-28T13:35:40;3.35;;;1.73;;
83562;SDS011;73535;52.500;13.482;2023-12-28T13:38:06;3.38;;;1.63;;
83562;SDS011;73535;52.500;13.482;2023-12-28T13:40:31;3.92;;;2.00;;
83562;SDS011;73535;52.500;13.482;2023-12-28T13:42:56;3.63;;;1.88;;
83562;SDS011;73535;52.500;13.482;2023-12-28T13:45:22;4.00;;;1.55;;
83562;SDS011;73535;52.500;13.482;2023-12-28T13:47:47;4.78;;;2.25;;
83562;SDS011;73535;52.500;13.482;2023-12-28T13:50:12;3.78;;;1.83;;
83562;SDS011;73535;52.500;13.482;2023-12-28T13:52:37;2.92;;;1.70;;
83562;SDS011;73535;52.500;13.482;2023-12-28T13:55:03;3.15;;;1.63;;
83562;SDS011;73535;52.500;13.482;2023-12-28T13:57:28;2.42;;;1.30;;
83562;SDS011;73535;52.500;13.482;2023-12-28T13:59:53;2.33;;;1.50;;
83562;SDS011;73535;52.500;13.482;2023-12-28T14:02:21;6.25;;;1.95;;
83562;SDS011;73535;52.500;13.482;2023-12-28T14:04:46;2.80;;;1.73;;
83562;SDS011;73535;52.500;13.482;2023-12-28T14:07:12;3.28;;;1.83;;
83562;SDS011;73535;52.500;13.482;2023-12-28T14:09:37;4.07;;;1.73;;
83562;SDS011;73535;52.500;13.482;2023-12-28T14:12:02;4.85;;;1.70;;
83562;SDS011;73535;52.500;13.482;2023-12-28T14:14:27;3.88;;;1.75;;
83562;SDS011;73535;52.500;13.482;2023-12-28T14:16:53;2.45;;;1.77;;
83562;SDS011;73535;52.500;13.482;2023-12-28T14:19:18;3.05;;;1.60;;
83562;SDS011;73535;52.500;13.482;2023-12-28T14:21:43;3.17;;;1.73;;
83562;SDS011;73535;52.500;13.482;2023-12-28T14:24:09;2.50;;;1.85;;
83562;SDS011;73535;52.500;13.482;2023-12-28T14:26:34;5.18;;;1.70;;
83562;SDS011;73535;52.500;13.482;2023-12-28T14:29:07;2.95;;;2.10;;
83562;SDS011;73535;52.500;13.482;2023-12-28T14:31:32;4.05;;;1.52;;
83562;SDS011;73535;52.500;13.482;2023-12-28T14:33:58;2.50;;;1.88;;
83562;SDS011;73535;52.500;13.482;2023-12-28T14:36:34;6.55;;;1.90;;
83562;SDS011;73535;52.500;13.482;2023-12-28T14:39:03;4.47;;;1.73;;
83562;SDS011;73535;52.500;13.482;2023-12-28T14:41:30;2.35;;;1.60;;
83562;SDS011;73535;52.500;13.482;2023-12-28T14:43:56;3.10;;;2.00;;
83562;SDS011;73535;52.500;13.482;2023-12-28T14:46:24;3.38;;;1.65;;